Terminal Aerodrome Forecast
Issued by NWS Houston/Galveston, TX

Current Version | Previous Version | Text Only | Print | Product List | Glossary On
Versions: 1 2 3 4 5 6 7 8 9 10 11 12 13 14 15 16 17 18 19 20 21 22 23 24 25 26 27 28 29 30 31
515
FTUS44 KHGX 260821 AAA
TAFCLL
TAF AMD
KCLL 260821Z 2608/2706 VRB04KT P6SM SCT007
      TEMPO 2608/2612 BKN007
     FM261400 VRB04KT P6SM VCSH SCT012 BKN030
     FM261800 14006KT P6SM VCTS SCT050CB
      TEMPO 2620/2624 VRB10G20KT TSRA
     FM270100 VRB04KT P6SM FEW035=

USA.gov is the U.S. government's official web portal to all federal, state and local government web resources and services.